sensor_id;sensor_type;location;lat;lon;timestamp;temperature;humidity
12841;DHT22;6487;48.626;12.486;2023-06-22T00:01:28;20.60;99.90
12841;DHT22;6487;48.626;12.486;2023-06-22T00:03:56;20.60;99.90
12841;DHT22;6487;48.626;12.486;2023-06-22T00:06:27;20.50;99.90
12841;DHT22;6487;48.626;12.486;2023-06-22T00:08:56;20.60;99.90
12841;DHT22;6487;48.626;12.486;2023-06-22T00:11:25;20.50;99.90
12841;DHT22;6487;48.626;12.486;2023-06-22T00:13:54;20.50;99.90
12841;DHT22;6487;48.626;12.486;2023-06-22T00:16:23;20.50;99.90
12841;DHT22;6487;48.626;12.486;2023-06-22T00:18:51;20.40;99.90
12841;DHT22;6487;48.626;12.486;2023-06-22T00:21:19;20.30;99.90
12841;DHT22;6487;48.626;12.486;2023-06-22T00:23:48;20.40;99.90
12841;DHT22;6487;48.626;12.486;2023-06-22T00:26:19;20.40;99.90
12841;DHT22;6487;48.626;12.486;2023-06-22T00:28:52;20.30;99.90
12841;DHT22;6487;48.626;12.486;2023-06-22T00:31:21;20.20;99.90
12841;DHT22;6487;48.626;12.486;2023-06-22T00:33:49;20.10;99.90
12841;DHT22;6487;48.626;12.486;2023-06-22T00:36:24;20.00;99.90
12841;DHT22;6487;48.626;12.486;2023-06-22T00:38:55;20.00;99.90
12841;DHT22;6487;48.626;12.486;2023-06-22T00:41:24;19.90;99.90
12841;DHT22;6487;48.626;12.486;2023-06-22T00:43:59;19.90;99.90
12841;DHT22;6487;48.626;12.486;2023-06-22T00:46:27;19.90;99.90
12841;DHT22;6487;48.626;12.486;2023-06-22T00:48:56;19.90;99.90
12841;DHT22;6487;48.626;12.486;2023-06-22T00:51:24;19.90;99.90
12841;DHT22;6487;48.626;12.486;2023-06-22T00:53:53;19.90;99.90
12841;DHT22;6487;48.626;12.486;2023-06-22T00:56:23;20.00;99.90
12841;DHT22;6487;48.626;12.486;2023-06-22T00:58:59;20.00;99.90
12841;DHT22;6487;48.626;12.486;2023-06-22T01:01:30;19.90;99.90
12841;DHT22;6487;48.626;12.486;2023-06-22T01:04:04;19.90;99.90
12841;DHT22;6487;48.626;12.486;2023-06-22T01:06:38;19.90;99.90
12841;DHT22;6487;48.626;12.486;2023-06-22T01:09:15;19.90;99.90
12841;DHT22;6487;48.626;12.486;2023-06-22T01:11:52;19.80;99.90
12841;DHT22;6487;48.626;12.486;2023-06-22T01:14:32;19.70;99.90
12841;DHT22;6487;48.626;12.486;2023-06-22T01:17:05;19.70;99.90
12841;DHT22;6487;48.626;12.486;2023-06-22T01:19:43;19.60;99.90
12841;DHT22;6487;48.626;12.486;2023-06-22T01:22:16;19.60;99.90
12841;DHT22;6487;48.626;12.486;2023-06-22T01:24:53;19.60;99.90
12841;DHT22;6487;48.626;12.486;2023-06-22T01:27:37;19.60;99.90
12841;DHT22;6487;48.626;12.486;2023-06-22T01:30:11;19.60;99.90
12841;DHT22;6487;48.626;12.486;2023-06-22T01:32:40;19.60;99.90
12841;DHT22;6487;48.626;12.486;2023-06-22T01:35:13;19.60;99.90
12841;DHT22;6487;48.626;12.486;2023-06-22T01:37:45;19.40;99.90
12841;DHT22;6487;48.626;12.486;2023-06-22T01:40:15;19.30;99.90
12841;DHT22;6487;48.626;12.486;2023-06-22T01:42:44;19.40;99.90
12841;DHT22;6487;48.626;12.486;2023-06-22T01:45:15;19.50;99.90
12841;DHT22;6487;48.626;12.486;2023-06-22T01:47:44;19.50;99.90
12841;DHT22;6487;48.626;12.486;2023-06-22T01:50:12;19.30;99.90
12841;DHT22;6487;48.626;12.486;2023-06-22T01:52:41;19.30;99.90
12841;DHT22;6487;48.626;12.486;2023-06-22T01:55:09;19.30;99.90
12841;DHT22;6487;48.626;12.486;2023-06-22T01:57:38;19.30;99.90
12841;DHT22;6487;48.626;12.486;2023-06-22T02:00:11;19.30;99.90
12841;DHT22;6487;48.626;12.486;2023-06-22T02:02:46;19.40;99.90
12841;DHT22;6487;48.626;12.486;2023-06-22T02:05:20;19.20;99.90
12841;DHT22;6487;48.626;12.486;2023-06-22T02:07:52;19.20;99.90
12841;DHT22;6487;48.626;12.486;2023-06-22T02:10:24;19.20;99.90
12841;DHT22;6487;48.626;12.486;2023-06-22T02:12:59;19.20;99.90
12841;DHT22;6487;48.626;12.486;2023-06-22T02:15:32;19.20;99.90
12841;DHT22;6487;48.626;12.486;2023-06-22T02:18:01;19.30;99.90
12841;DHT22;6487;48.626;12.486;2023-06-22T02:20:30;19.20;99.90
12841;DHT22;6487;48.626;12.486;2023-06-22T02:22:58;19.10;99.90
12841;DHT22;6487;48.626;12.486;2023-06-22T02:25:27;19.20;99.90
12841;DHT22;6487;48.626;12.486;2023-06-22T02:27:55;19.20;99.90
12841;DHT22;6487;48.626;12.486;2023-06-22T02:30:23;19.20;99.90
12841;DHT22;6487;48.626;12.486;2023-06-22T02:32:53;19.20;99.90
12841;DHT22;6487;48.626;12.486;2023-06-22T02:35:26;19.10;99.90
12841;DHT22;6487;48.626;12.486;2023-06-22T02:37:58;19.20;99.90
12841;DHT22;6487;48.626;12.486;2023-06-22T02:40:33;19.10;99.90
12841;DHT22;6487;48.626;12.486;2023-06-22T02:43:02;19.10;99.90
12841;DHT22;6487;48.626;12.486;2023-06-22T02:45:30;19.00;99.90
12841;DHT22;6487;48.626;12.486;2023-06-22T02:48:00;19.10;99.90
12841;DHT22;6487;48.626;12.486;2023-06-22T02:50:32;19.10;99.90
12841;DHT22;6487;48.626;12.486;2023-06-22T02:53:00;19.00;99.90
12841;DHT22;6487;48.626;12.486;2023-06-22T02:55:28;19.00;99.90
12841;DHT22;6487;48.626;12.486;2023-06-22T02:58:00;19.00;99.90
12841;DHT22;6487;48.626;12.486;2023-06-22T03:00:35;19.00;99.90
12841;DHT22;6487;48.626;12.486;2023-06-22T03:03:05;19.00;99.90
12841;DHT22;6487;48.626;12.486;2023-06-22T03:05:33;18.90;99.90
12841;DHT22;6487;48.626;12.486;2023-06-22T03:08:04;18.90;99.90
12841;DHT22;6487;48.626;12.486;2023-06-22T03:10:32;19.00;99.90
12841;DHT22;6487;48.626;12.486;2023-06-22T03:13:01;19.00;99.90
12841;DHT22;6487;48.626;12.486;2023-06-22T03:15:29;19.00;99.90
12841;DHT22;6487;48.626;12.486;2023-06-22T03:17:58;19.00;99.90
12841;DHT22;6487;48.626;12.486;2023-06-22T03:20:28;19.00;99.90
12841;DHT22;6487;48.626;12.486;2023-06-22T03:23:00;19.00;99.90
12841;DHT22;6487;48.626;12.486;2023-06-22T03:25:28;19.00;99.90
12841;DHT22;6487;48.626;12.486;2023-06-22T03:27:56;19.10;99.90
12841;DHT22;6487;48.626;12.486;2023-06-22T03:30:25;19.00;99.90
12841;DHT22;6487;48.626;12.486;2023-06-22T03:32:54;18.90;99.90
12841;DHT22;6487;48.626;12.486;2023-06-22T03:35:22;19.00;99.90
12841;DHT22;6487;48.626;12.486;2023-06-22T03:37:52;19.00;99.90
12841;DHT22;6487;48.626;12.486;2023-06-22T03:40:23;18.90;99.90
12841;DHT22;6487;48.626;12.486;2023-06-22T03:42:52;19.00;99.90
12841;DHT22;6487;48.626;12.486;2023-06-22T03:45:20;19.00;99.90
12841;DHT22;6487;48.626;12.486;2023-06-22T03:47:49;19.10;99.90
12841;DHT22;6487;48.626;12.486;2023-06-22T03:50:17;19.00;99.90
12841;DHT22;6487;48.626;12.486;2023-06-22T03:52:50;19.00;99.90
12841;DHT22;6487;48.626;12.486;2023-06-22T03:55:22;19.00;99.90
12841;DHT22;6487;48.626;12.486;2023-06-22T03:57:51;19.00;99.90
12841;DHT22;6487;48.626;12.486;2023-06-22T04:00:20;19.00;99.90
12841;DHT22;6487;48.626;12.486;2023-06-22T04:02:49;19.00;99.90
12841;DHT22;6487;48.626;12.486;2023-06-22T04:05:18;19.10;99.90
12841;DHT22;6487;48.626;12.486;2023-06-22T04:07:46;19.10;99.90
12841;DHT22;6487;48.626;12.486;2023-06-22T04:10:18;19.10;99.90
12841;DHT22;6487;48.626;12.486;2023-06-22T04:12:50;19.10;99.90
12841;DHT22;6487;48.626;12.486;2023-06-22T04:15:18;19.10;99.90
12841;DHT22;6487;48.626;12.486;2023-06-22T04:17:46;19.10;99.90
12841;DHT22;6487;48.626;12.486;2023-06-22T04:20:15;19.10;99.90
12841;DHT22;6487;48.626;12.486;2023-06-22T04:22:43;19.20;99.90
12841;DHT22;6487;48.626;12.486;2023-06-22T04:25:15;19.20;99.90
12841;DHT22;6487;48.626;12.486;2023-06-22T04:27:44;19.20;99.90
12841;DHT22;6487;48.626;12.486;2023-06-22T04:30:13;19.20;99.90
12841;DHT22;6487;48.626;12.486;2023-06-22T04:32:43;19.20;99.90
12841;DHT22;6487;48.626;12.486;2023-06-22T04:35:12;19.20;99.90
12841;DHT22;6487;48.626;12.486;2023-06-22T04:37:42;19.30;99.90
12841;DHT22;6487;48.626;12.486;2023-06-22T04:40:12;19.40;99.90
12841;DHT22;6487;48.626;12.486;2023-06-22T04:42:41;19.40;99.90
12841;DHT22;6487;48.626;12.486;2023-06-22T04:45:21;19.40;99.90
12841;DHT22;6487;48.626;12.486;2023-06-22T04:47:49;19.50;99.90
12841;DHT22;6487;48.626;12.486;2023-06-22T04:50:19;19.50;99.90
12841;DHT22;6487;48.626;12.486;2023-06-22T04:52:48;19.50;99.90
12841;DHT22;6487;48.626;12.486;2023-06-22T04:55:17;19.60;99.90
12841;DHT22;6487;48.626;12.486;2023-06-22T04:57:46;19.60;99.90
12841;DHT22;6487;48.626;12.486;2023-06-22T05:00:17;19.60;99.90
12841;DHT22;6487;48.626;12.486;2023-06-22T05:02:51;19.70;99.90
12841;DHT22;6487;48.626;12.486;2023-06-22T05:05:44;19.70;99.90
12841;DHT22;6487;48.626;12.486;2023-06-22T05:08:13;19.80;99.90
12841;DHT22;6487;48.626;12.486;2023-06-22T05:10:42;19.90;99.90
12841;DHT22;6487;48.626;12.486;2023-06-22T05:13:31;19.90;99.90
12841;DHT22;6487;48.626;12.486;2023-06-22T05:16:00;20.00;99.90
12841;DHT22;6487;48.626;12.486;2023-06-22T05:18:31;20.00;99.90
12841;DHT22;6487;48.626;12.486;2023-06-22T05:21:00;20.00;99.90
12841;DHT22;6487;48.626;12.486;2023-06-22T05:23:28;20.10;99.90
12841;DHT22;6487;48.626;12.486;2023-06-22T05:25:57;20.00;99.90
12841;DHT22;6487;48.626;12.486;2023-06-22T05:28:28;20.00;99.90
12841;DHT22;6487;48.626;12.486;2023-06-22T05:30:56;20.10;99.90
12841;DHT22;6487;48.626;12.486;2023-06-22T05:33:24;20.10;99.90
12841;DHT22;6487;48.626;12.486;2023-06-22T05:35:54;20.30;99.90
12841;DHT22;6487;48.626;12.486;2023-06-22T05:38:22;20.40;99.90
12841;DHT22;6487;48.626;12.486;2023-06-22T05:40:51;20.40;99.90
12841;DHT22;6487;48.626;12.486;2023-06-22T05:43:19;20.60;99.90
12841;DHT22;6487;48.626;12.486;2023-06-22T05:45:47;20.60;99.90
12841;DHT22;6487;48.626;12.486;2023-06-22T05:48:16;20.70;99.90
12841;DHT22;6487;48.626;12.486;2023-06-22T05:50:44;20.70;99.90
12841;DHT22;6487;48.626;12.486;2023-06-22T05:53:14;20.70;99.90
12841;DHT22;6487;48.626;12.486;2023-06-22T05:55:44;20.80;99.90
12841;DHT22;6487;48.626;12.486;2023-06-22T05:58:15;20.80;99.90
12841;DHT22;6487;48.626;12.486;2023-06-22T06:00:44;20.90;99.90
12841;DHT22;6487;48.626;12.486;2023-06-22T06:03:13;21.00;99.90
12841;DHT22;6487;48.626;12.486;2023-06-22T06:05:46;21.10;99.90
12841;DHT22;6487;48.626;12.486;2023-06-22T06:08:16;21.10;99.90
12841;DHT22;6487;48.626;12.486;2023-06-22T06:10:44;21.20;99.90
12841;DHT22;6487;48.626;12.486;2023-06-22T06:13:15;21.30;99.90
12841;DHT22;6487;48.626;12.486;2023-06-22T06:15:43;21.50;99.90
12841;DHT22;6487;48.626;12.486;2023-06-22T06:18:12;21.50;99.90
12841;DHT22;6487;48.626;12.486;2023-06-22T06:20:40;21.60;99.90
12841;DHT22;6487;48.626;12.486;2023-06-22T06:23:08;21.80;99.90
12841;DHT22;6487;48.626;12.486;2023-06-22T06:25:38;21.80;99.90
12841;DHT22;6487;48.626;12.486;2023-06-22T06:28:06;21.80;99.90
12841;DHT22;6487;48.626;12.486;2023-06-22T06:30:35;22.00;99.90
12841;DHT22;6487;48.626;12.486;2023-06-22T06:33:04;22.20;99.90
12841;DHT22;6487;48.626;12.486;2023-06-22T06:35:36;22.30;99.90
12841;DHT22;6487;48.626;12.486;2023-06-22T06:38:04;22.40;99.90
12841;DHT22;6487;48.626;12.486;2023-06-22T06:40:33;22.50;99.90
12841;DHT22;6487;48.626;12.486;2023-06-22T06:43:03;22.60;99.90
12841;DHT22;6487;48.626;12.486;2023-06-22T06:45:31;22.80;99.90
12841;DHT22;6487;48.626;12.486;2023-06-22T06:48:01;22.90;99.90
12841;DHT22;6487;48.626;12.486;2023-06-22T06:50:30;23.00;99.90
12841;DHT22;6487;48.626;12.486;2023-06-22T06:52:59;23.10;99.90
12841;DHT22;6487;48.626;12.486;2023-06-22T06:55:27;23.30;99.90
12841;DHT22;6487;48.626;12.486;2023-06-22T06:57:59;23.40;99.90
12841;DHT22;6487;48.626;12.486;2023-06-22T07:00:30;23.40;99.90
12841;DHT22;6487;48.626;12.486;2023-06-22T07:02:59;23.60;99.90
12841;DHT22;6487;48.626;12.486;2023-06-22T07:05:27;23.70;99.90
12841;DHT22;6487;48.626;12.486;2023-06-22T07:07:56;23.80;99.90
12841;DHT22;6487;48.626;12.486;2023-06-22T07:10:24;24.00;99.90
12841;DHT22;6487;48.626;12.486;2023-06-22T07:12:53;24.20;99.90
12841;DHT22;6487;48.626;12.486;2023-06-22T07:15:21;24.30;99.90
12841;DHT22;6487;48.626;12.486;2023-06-22T07:17:51;24.50;99.90
12841;DHT22;6487;48.626;12.486;2023-06-22T07:20:19;24.60;99.90
12841;DHT22;6487;48.626;12.486;2023-06-22T07:22:48;24.70;99.90
12841;DHT22;6487;48.626;12.486;2023-06-22T07:25:16;24.90;99.90
12841;DHT22;6487;48.626;12.486;2023-06-22T07:27:46;25.00;99.90
12841;DHT22;6487;48.626;12.486;2023-06-22T07:30:24;25.10;99.90
12841;DHT22;6487;48.626;12.486;2023-06-22T07:32:56;25.20;99.90
12841;DHT22;6487;48.626;12.486;2023-06-22T07:35:25;25.40;99.90
12841;DHT22;6487;48.626;12.486;2023-06-22T07:37:53;25.60;99.90
12841;DHT22;6487;48.626;12.486;2023-06-22T07:40:22;25.60;99.90
12841;DHT22;6487;48.626;12.486;2023-06-22T07:42:50;25.70;99.90
12841;DHT22;6487;48.626;12.486;2023-06-22T07:45:20;25.70;99.90
12841;DHT22;6487;48.626;12.486;2023-06-22T07:47:49;25.80;99.40
12841;DHT22;6487;48.626;12.486;2023-06-22T07:50:19;25.70;98.70
12841;DHT22;6487;48.626;12.486;2023-06-22T07:52:47;25.90;99.10
12841;DHT22;6487;48.626;12.486;2023-06-22T07:55:16;26.10;99.00
12841;DHT22;6487;48.626;12.486;2023-06-22T07:57:48;26.30;99.20
12841;DHT22;6487;48.626;12.486;2023-06-22T08:00:20;26.40;97.70
12841;DHT22;6487;48.626;12.486;2023-06-22T08:02:49;26.50;97.80
12841;DHT22;6487;48.626;12.486;2023-06-22T08:05:19;26.60;97.20
12841;DHT22;6487;48.626;12.486;2023-06-22T08:07:49;26.70;97.00
12841;DHT22;6487;48.626;12.486;2023-06-22T08:10:18;26.80;96.80
12841;DHT22;6487;48.626;12.486;2023-06-22T08:12:47;27.00;97.80
12841;DHT22;6487;48.626;12.486;2023-06-22T08:15:15;27.20;97.50
12841;DHT22;6487;48.626;12.486;2023-06-22T08:17:44;27.20;96.50
12841;DHT22;6487;48.626;12.486;2023-06-22T08:20:13;27.40;96.20
12841;DHT22;6487;48.626;12.486;2023-06-22T08:22:43;27.40;95.50
12841;DHT22;6487;48.626;12.486;2023-06-22T08:25:12;27.60;95.30
12841;DHT22;6487;48.626;12.486;2023-06-22T08:27:45;27.90;96.80
12841;DHT22;6487;48.626;12.486;2023-06-22T08:30:15;28.00;96.20
12841;DHT22;6487;48.626;12.486;2023-06-22T08:32:46;28.20;94.30
12841;DHT22;6487;48.626;12.486;2023-06-22T08:35:15;28.20;94.30
12841;DHT22;6487;48.626;12.486;2023-06-22T08:37:44;28.30;95.00
12841;DHT22;6487;48.626;12.486;2023-06-22T08:40:19;28.50;93.30
12841;DHT22;6487;48.626;12.486;2023-06-22T08:42:48;28.60;93.90
12841;DHT22;6487;48.626;12.486;2023-06-22T08:45:17;28.70;94.00
12841;DHT22;6487;48.626;12.486;2023-06-22T08:47:45;28.70;92.90
12841;DHT22;6487;48.626;12.486;2023-06-22T08:50:14;28.70;93.20
12841;DHT22;6487;48.626;12.486;2023-06-22T08:52:43;28.90;93.50
12841;DHT22;6487;48.626;12.486;2023-06-22T08:55:12;29.10;93.40
12841;DHT22;6487;48.626;12.486;2023-06-22T08:57:41;29.30;92.30
12841;DHT22;6487;48.626;12.486;2023-06-22T09:00:11;29.30;92.40
12841;DHT22;6487;48.626;12.486;2023-06-22T09:02:47;29.40;93.10
12841;DHT22;6487;48.626;12.486;2023-06-22T09:05:16;29.40;92.10
12841;DHT22;6487;48.626;12.486;2023-06-22T09:07:46;29.50;91.70
12841;DHT22;6487;48.626;12.486;2023-06-22T09:10:14;29.70;91.80
12841;DHT22;6487;48.626;12.486;2023-06-22T09:12:43;29.60;90.70
12841;DHT22;6487;48.626;12.486;2023-06-22T09:15:12;29.70;91.90
12841;DHT22;6487;48.626;12.486;2023-06-22T09:17:44;29.70;91.50
12841;DHT22;6487;48.626;12.486;2023-06-22T09:20:14;29.70;91.00
12841;DHT22;6487;48.626;12.486;2023-06-22T09:22:43;29.80;90.60
12841;DHT22;6487;48.626;12.486;2023-06-22T09:25:12;29.80;90.70
12841;DHT22;6487;48.626;12.486;2023-06-22T09:27:41;30.20;91.70
12841;DHT22;6487;48.626;12.486;2023-06-22T09:30:12;30.20;90.40
12841;DHT22;6487;48.626;12.486;2023-06-22T09:32:41;30.30;90.40
12841;DHT22;6487;48.626;12.486;2023-06-22T09:35:10;30.50;91.50
12841;DHT22;6487;48.626;12.486;2023-06-22T09:37:40;30.80;90.80
12841;DHT22;6487;48.626;12.486;2023-06-22T09:40:09;30.90;88.30
12841;DHT22;6487;48.626;12.486;2023-06-22T09:42:42;31.10;90.30
12841;DHT22;6487;48.626;12.486;2023-06-22T09:45:11;31.00;86.20
12841;DHT22;6487;48.626;12.486;2023-06-22T09:47:39;31.20;85.90
12841;DHT22;6487;48.626;12.486;2023-06-22T09:50:08;31.20;86.90
12841;DHT22;6487;48.626;12.486;2023-06-22T09:52:37;31.40;87.60
12841;DHT22;6487;48.626;12.486;2023-06-22T09:55:08;31.40;85.00
12841;DHT22;6487;48.626;12.486;2023-06-22T09:57:43;31.50;85.70
12841;DHT22;6487;48.626;12.486;2023-06-22T10:00:13;31.60;85.40
12841;DHT22;6487;48.626;12.486;2023-06-22T10:02:42;31.40;82.00
12841;DHT22;6487;48.626;12.486;2023-06-22T10:05:11;31.20;81.50
12841;DHT22;6487;48.626;12.486;2023-06-22T10:07:40;30.90;81.30
12841;DHT22;6487;48.626;12.486;2023-06-22T10:10:11;30.80;81.40
12841;DHT22;6487;48.626;12.486;2023-06-22T10:12:46;30.70;81.60
12841;DHT22;6487;48.626;12.486;2023-06-22T10:15:15;30.60;82.70
12841;DHT22;6487;48.626;12.486;2023-06-22T10:17:47;30.70;83.30
12841;DHT22;6487;48.626;12.486;2023-06-22T10:20:22;30.70;81.50
12841;DHT22;6487;48.626;12.486;2023-06-22T10:22:55;30.80;82.10
12841;DHT22;6487;48.626;12.486;2023-06-22T10:25:26;31.00;81.70
12841;DHT22;6487;48.626;12.486;2023-06-22T10:27:57;31.00;81.70
12841;DHT22;6487;48.626;12.486;2023-06-22T10:30:25;31.10;82.30
12841;DHT22;6487;48.626;12.486;2023-06-22T10:32:55;31.40;82.60
12841;DHT22;6487;48.626;12.486;2023-06-22T10:35:29;31.50;83.00
12841;DHT22;6487;48.626;12.486;2023-06-22T10:37:58;31.70;83.70
12841;DHT22;6487;48.626;12.486;2023-06-22T10:40:26;31.70;80.20
12841;DHT22;6487;48.626;12.486;2023-06-22T10:42:56;31.80;81.70
12841;DHT22;6487;48.626;12.486;2023-06-22T10:45:24;31.80;77.90
12841;DHT22;6487;48.626;12.486;2023-06-22T10:47:54;31.80;78.00
12841;DHT22;6487;48.626;12.486;2023-06-22T10:50:23;31.90;79.50
12841;DHT22;6487;48.626;12.486;2023-06-22T10:52:53;32.00;78.30
12841;DHT22;6487;48.626;12.486;2023-06-22T10:55:26;32.10;78.70
12841;DHT22;6487;48.626;12.486;2023-06-22T10:58:14;32.20;78.00
12841;DHT22;6487;48.626;12.486;2023-06-22T11:00:42;32.40;75.80
12841;DHT22;6487;48.626;12.486;2023-06-22T11:03:11;32.60;75.50
12841;DHT22;6487;48.626;12.486;2023-06-22T11:05:41;32.80;75.80
12841;DHT22;6487;48.626;12.486;2023-06-22T11:08:09;32.80;76.90
12841;DHT22;6487;48.626;12.486;2023-06-22T11:10:38;32.80;73.60
12841;DHT22;6487;48.626;12.486;2023-06-22T11:13:06;32.90;75.50
12841;DHT22;6487;48.626;12.486;2023-06-22T11:15:40;32.90;76.80
12841;DHT22;6487;48.626;12.486;2023-06-22T11:18:08;33.00;75.70
12841;DHT22;6487;48.626;12.486;2023-06-22T11:20:37;33.20;75.90
12841;DHT22;6487;48.626;12.486;2023-06-22T11:23:10;33.40;76.00
12841;DHT22;6487;48.626;12.486;2023-06-22T11:25:39;33.40;74.80
12841;DHT22;6487;48.626;12.486;2023-06-22T11:28:09;33.60;75.30
12841;DHT22;6487;48.626;12.486;2023-06-22T11:30:37;33.50;72.20
12841;DHT22;6487;48.626;12.486;2023-06-22T11:33:07;33.40;70.90
12841;DHT22;6487;48.626;12.486;2023-06-22T11:35:35;33.40;71.50
12841;DHT22;6487;48.626;12.486;2023-06-22T11:38:04;33.70;73.80
12841;DHT22;6487;48.626;12.486;2023-06-22T11:40:32;33.90;72.40
12841;DHT22;6487;48.626;12.486;2023-06-22T11:43:00;34.10;70.80
12841;DHT22;6487;48.626;12.486;2023-06-22T11:45:29;34.10;68.80
12841;DHT22;6487;48.626;12.486;2023-06-22T11:47:57;34.30;69.00
12841;DHT22;6487;48.626;12.486;2023-06-22T11:50:27;34.40;69.70
12841;DHT22;6487;48.626;12.486;2023-06-22T11:52:57;34.50;68.80
12841;DHT22;6487;48.626;12.486;2023-06-22T11:55:25;34.70;71.30
12841;DHT22;6487;48.626;12.486;2023-06-22T11:57:55;34.70;68.60
12841;DHT22;6487;48.626;12.486;2023-06-22T12:00:26;34.80;70.30
12841;DHT22;6487;48.626;12.486;2023-06-22T12:02:56;34.80;67.50
12841;DHT22;6487;48.626;12.486;2023-06-22T12:05:28;34.70;67.10
12841;DHT22;6487;48.626;12.486;2023-06-22T12:07:57;34.90;68.60
12841;DHT22;6487;48.626;12.486;2023-06-22T12:10:25;34.90;69.40
12841;DHT22;6487;48.626;12.486;2023-06-22T12:12:56;35.00;67.70
12841;DHT22;6487;48.626;12.486;2023-06-22T12:15:27;35.00;68.50
12841;DHT22;6487;48.626;12.486;2023-06-22T12:17:55;35.10;68.10
12841;DHT22;6487;48.626;12.486;2023-06-22T12:20:23;35.00;65.70
12841;DHT22;6487;48.626;12.486;2023-06-22T12:22:53;34.90;66.40
12841;DHT22;6487;48.626;12.486;2023-06-22T12:25:23;34.90;65.70
12841;DHT22;6487;48.626;12.486;2023-06-22T12:27:51;34.90;65.50
12841;DHT22;6487;48.626;12.486;2023-06-22T12:30:20;35.00;67.40
12841;DHT22;6487;48.626;12.486;2023-06-22T12:32:49;34.90;66.10
12841;DHT22;6487;48.626;12.486;2023-06-22T12:35:21;34.90;65.00
12841;DHT22;6487;48.626;12.486;2023-06-22T12:37:49;34.90;68.80
12841;DHT22;6487;48.626;12.486;2023-06-22T12:40:19;35.00;65.50
12841;DHT22;6487;48.626;12.486;2023-06-22T12:42:49;35.10;65.80
12841;DHT22;6487;48.626;12.486;2023-06-22T12:45:17;35.00;65.00
12841;DHT22;6487;48.626;12.486;2023-06-22T12:47:48;35.00;63.20
12841;DHT22;6487;48.626;12.486;2023-06-22T12:50:19;34.90;62.20
12841;DHT22;6487;48.626;12.486;2023-06-22T12:52:47;34.90;63.70
12841;DHT22;6487;48.626;12.486;2023-06-22T12:55:16;35.00;62.50
12841;DHT22;6487;48.626;12.486;2023-06-22T12:57:45;35.00;63.60
12841;DHT22;6487;48.626;12.486;2023-06-22T13:00:15;35.20;62.00
12841;DHT22;6487;48.626;12.486;2023-06-22T13:02:44;35.00;60.40
12841;DHT22;6487;48.626;12.486;2023-06-22T13:05:12;35.10;64.20
12841;DHT22;6487;48.626;12.486;2023-06-22T13:07:40;35.20;62.30
12841;DHT22;6487;48.626;12.486;2023-06-22T13:10:09;35.20;59.50
12841;DHT22;6487;48.626;12.486;2023-06-22T13:12:38;35.10;61.00
12841;DHT22;6487;48.626;12.486;2023-06-22T13:15:08;35.20;61.80
12841;DHT22;6487;48.626;12.486;2023-06-22T13:17:36;35.50;62.50
12841;DHT22;6487;48.626;12.486;2023-06-22T13:20:06;35.30;61.30
12841;DHT22;6487;48.626;12.486;2023-06-22T13:22:43;35.40;64.10
12841;DHT22;6487;48.626;12.486;2023-06-22T13:25:11;35.40;62.30
12841;DHT22;6487;48.626;12.486;2023-06-22T13:27:40;35.80;63.60
12841;DHT22;6487;48.626;12.486;2023-06-22T13:30:10;35.80;61.70
12841;DHT22;6487;48.626;12.486;2023-06-22T13:32:42;35.80;61.80
12841;DHT22;6487;48.626;12.486;2023-06-22T13:35:11;35.80;62.30
12841;DHT22;6487;48.626;12.486;2023-06-22T13:37:39;35.70;63.00
12841;DHT22;6487;48.626;12.486;2023-06-22T13:40:08;35.80;61.70
12841;DHT22;6487;48.626;12.486;2023-06-22T13:42:37;35.80;61.00
12841;DHT22;6487;48.626;12.486;2023-06-22T13:45:11;35.80;61.90
12841;DHT22;6487;48.626;12.486;2023-06-22T13:47:42;35.80;61.40
12841;DHT22;6487;48.626;12.486;2023-06-22T13:50:11;35.90;59.90
12841;DHT22;6487;48.626;12.486;2023-06-22T13:52:40;35.90;60.60
12841;DHT22;6487;48.626;12.486;2023-06-22T13:55:09;36.00;62.30
12841;DHT22;6487;48.626;12.486;2023-06-22T13:57:41;36.10;61.80
12841;DHT22;6487;48.626;12.486;2023-06-22T14:00:14;35.90;60.20
12841;DHT22;6487;48.626;12.486;2023-06-22T14:02:43;35.80;60.40
12841;DHT22;6487;48.626;12.486;2023-06-22T14:05:11;35.50;59.60
12841;DHT22;6487;48.626;12.486;2023-06-22T14:07:40;35.60;60.90
12841;DHT22;6487;48.626;12.486;2023-06-22T14:10:09;35.50;66.10
12841;DHT22;6487;48.626;12.486;2023-06-22T14:12:40;35.40;61.90
12841;DHT22;6487;48.626;12.486;2023-06-22T14:15:10;35.20;61.70
12841;DHT22;6487;48.626;12.486;2023-06-22T14:17:39;35.10;63.50
12841;DHT22;6487;48.626;12.486;2023-06-22T14:20:11;35.10;65.50
12841;DHT22;6487;48.626;12.486;2023-06-22T14:22:39;35.10;66.90
12841;DHT22;6487;48.626;12.486;2023-06-22T14:25:08;35.20;66.00
12841;DHT22;6487;48.626;12.486;2023-06-22T14:27:36;35.30;65.90
12841;DHT22;6487;48.626;12.486;2023-06-22T14:30:06;35.20;65.30
12841;DHT22;6487;48.626;12.486;2023-06-22T14:32:36;35.20;64.30
12841;DHT22;6487;48.626;12.486;2023-06-22T14:35:07;35.10;61.90
12841;DHT22;6487;48.626;12.486;2023-06-22T14:37:38;35.10;62.00
12841;DHT22;6487;48.626;12.486;2023-06-22T14:40:07;35.20;63.30
12841;DHT22;6487;48.626;12.486;2023-06-22T14:42:36;35.20;62.50
12841;DHT22;6487;48.626;12.486;2023-06-22T14:45:06;35.20;67.20
12841;DHT22;6487;48.626;12.486;2023-06-22T14:47:39;35.20;71.20
12841;DHT22;6487;48.626;12.486;2023-06-22T14:50:08;35.30;68.50
12841;DHT22;6487;48.626;12.486;2023-06-22T14:52:36;35.30;68.70
12841;DHT22;6487;48.626;12.486;2023-06-22T14:55:06;35.30;70.00
12841;DHT22;6487;48.626;12.486;2023-06-22T14:57:34;35.30;66.70
12841;DHT22;6487;48.626;12.486;2023-06-22T15:00:04;35.30;65.60
12841;DHT22;6487;48.626;12.486;2023-06-22T15:02:33;35.40;65.20
12841;DHT22;6487;48.626;12.486;2023-06-22T15:05:04;35.50;65.90
12841;DHT22;6487;48.626;12.486;2023-06-22T15:07:33;35.50;65.60
12841;DHT22;6487;48.626;12.486;2023-06-22T15:10:01;35.60;65.20
12841;DHT22;6487;48.626;12.486;2023-06-22T15:12:29;35.60;66.00
12841;DHT22;6487;48.626;12.486;2023-06-22T15:14:58;35.60;67.00
12841;DHT22;6487;48.626;12.486;2023-06-22T15:17:26;35.60;65.00
12841;DHT22;6487;48.626;12.486;2023-06-22T15:19:57;35.60;65.40
12841;DHT22;6487;48.626;12.486;2023-06-22T15:22:29;35.50;65.20
12841;DHT22;6487;48.626;12.486;2023-06-22T15:24:58;35.60;64.90
12841;DHT22;6487;48.626;12.486;2023-06-22T15:27:26;35.50;67.10
12841;DHT22;6487;48.626;12.486;2023-06-22T15:29:54;35.50;64.30
12841;DHT22;6487;48.626;12.486;2023-06-22T15:32:26;35.60;66.30
12841;DHT22;6487;48.626;12.486;2023-06-22T15:34:55;35.70;67.50
12841;DHT22;6487;48.626;12.486;2023-06-22T15:37:24;35.90;68.60
12841;DHT22;6487;48.626;12.486;2023-06-22T15:39:53;35.80;66.10
12841;DHT22;6487;48.626;12.486;2023-06-22T15:42:22;35.80;66.90
12841;DHT22;6487;48.626;12.486;2023-06-22T15:44:51;35.70;66.30
12841;DHT22;6487;48.626;12.486;2023-06-22T15:47:19;35.70;65.40